createdAt,value
2023-04-18T03:47:53.642Z,100256.75
2023-04-18T03:50:58.323Z,100256.75
2023-04-18T03:54:00.867Z,100266.72
2023-04-18T03:57:03.634Z,100268.50
2023-04-18T04:00:08.173Z,100268.06
2023-04-18T04:03:18.221Z,100279.28
2023-04-18T04:06:21.735Z,100273.56
2023-04-18T04:09:24.832Z,100277.19
2023-04-18T04:12:30.992Z,100283.91
2023-04-18T04:15:34.031Z,100281.94
2023-04-18T04:18:37.609Z,100283.56
2023-04-18T04:21:40.529Z,100288.91
2023-04-18T04:24:44.008Z,100283.09
2023-04-18T04:27:49.637Z,100288.25
2023-04-18T04:30:53.184Z,100297.66
2023-04-18T04:33:55.814Z,100296.38
2023-04-18T04:37:00.741Z,100300.44
2023-04-18T04:40:06.360Z,100293.41
2023-04-18T04:43:15.478Z,100301.81
2023-04-18T04:46:19.988Z,100306.81
2023-04-18T04:49:24.792Z,100312.97
2023-04-18T04:52:27.765Z,100312.13
2023-04-18T04:55:30.750Z,100315.28
2023-04-18T04:58:33.539Z,100315.66
2023-04-18T05:01:36.951Z,100312.66
2023-04-18T05:04:39.396Z,100321.78
2023-04-18T05:07:44.980Z,100325.91
2023-04-18T05:10:49.721Z,100323.72
2023-04-18T05:13:52.504Z,100322.81
2023-04-18T05:16:55.720Z,100322.78
2023-04-18T05:19:58.414Z,100328.13
2023-04-18T05:23:00.948Z,100322.56
2023-04-18T05:26:07.073Z,100331.03
2023-04-18T05:29:09.696Z,100330.75
2023-04-18T05:32:12.468Z,100332.25
2023-04-18T05:35:14.850Z,100337.84
2023-04-18T05:38:17.448Z,100337.06
2023-04-18T05:41:19.853Z,100330.16
2023-04-18T05:44:24.196Z,100335.69
2023-04-18T05:47:28.456Z,100338.84
2023-04-18T05:50:31.356Z,100336.00
2023-04-18T05:53:33.672Z,100337.59
2023-04-18T05:56:36.635Z,100336.25
2023-04-18T05:59:39.359Z,100340.31
2023-04-18T06:02:42.237Z,100337.00
2023-04-18T06:05:46.170Z,100335.37
2023-04-18T06:08:48.580Z,100345.09
2023-04-18T06:11:51.172Z,100347.47
2023-04-18T06:14:53.552Z,100344.16
2023-04-18T06:17:56.126Z,100346.06
2023-04-18T06:20:58.436Z,100344.38
2023-04-18T06:24:01.614Z,100349.69
2023-04-18T06:27:05.372Z,100350.41
2023-04-18T06:30:08.623Z,100354.66
2023-04-18T06:33:11.401Z,100354.38
2023-04-18T06:36:14.099Z,100354.12
2023-04-18T06:39:16.751Z,100351.78
2023-04-18T06:42:22.054Z,100350.09
2023-04-18T06:45:24.741Z,100356.31
2023-04-18T06:48:28.426Z,100356.88
2023-04-18T06:51:31.644Z,100350.19
2023-04-18T06:54:34.725Z,100358.81
2023-04-18T06:57:37.881Z,100350.94
2023-04-18T07:00:40.515Z,100355.66
2023-04-18T07:03:42.750Z,100362.72
2023-04-18T07:06:45.581Z,100354.69
2023-04-18T07:09:49.223Z,100356.91
2023-04-18T07:12:52.107Z,100367.91
2023-04-18T07:15:54.943Z,100366.94
2023-04-18T07:18:57.621Z,100374.28
2023-04-18T07:22:00.492Z,100374.22
2023-04-18T07:25:03.330Z,100374.53
2023-04-18T07:28:05.897Z,100367.13
2023-04-18T07:31:11.421Z,100375.81
2023-04-18T07:34:14.677Z,100379.78
2023-04-18T07:37:18.966Z,100381.09
2023-04-18T07:40:21.621Z,100387.22
2023-04-18T07:43:24.328Z,100387.34
2023-04-18T07:46:27.080Z,100394.50
2023-04-18T07:49:31.961Z,100392.72
2023-04-18T07:52:34.664Z,100391.69
2023-04-18T07:55:38.811Z,100395.47
2023-04-18T07:58:41.275Z,100395.66
2023-04-18T08:01:44.182Z,100401.16
2023-04-18T08:04:50.018Z,100396.75
2023-04-18T08:07:52.872Z,100398.16
2023-04-18T08:10:55.811Z,100404.25
2023-04-18T08:13:58.219Z,100401.06
2023-04-18T08:17:00.801Z,100400.00
2023-04-18T08:20:09.537Z,100407.41
2023-04-18T08:23:13.376Z,100406.16
2023-04-18T08:26:15.869Z,100412.41
2023-04-18T08:29:18.572Z,100405.25
2023-04-18T08:32:20.987Z,100412.56
2023-04-18T08:35:23.850Z,100408.88
2023-04-18T08:38:26.341Z,100415.47
2023-04-18T08:41:35.907Z,100410.69
2023-04-18T08:44:38.311Z,100412.81
2023-04-18T08:47:41.898Z,100410.50
2023-04-18T08:50:44.990Z,100415.88
2023-04-18T08:53:48.369Z,100411.19
2023-04-18T08:57:07.458Z,100407.13
2023-04-18T09:00:11.814Z,100415.50
2023-04-18T09:03:15.431Z,100418.75
2023-04-18T09:06:21.020Z,100410.06
2023-04-18T09:09:27.455Z,100408.53
2023-04-18T09:12:30.219Z,100407.44
2023-04-18T09:15:32.743Z,100403.03
2023-04-18T09:18:35.464Z,100407.84
2023-04-18T09:21:41.366Z,100411.00
2023-04-18T09:24:57.466Z,100409.09
2023-04-18T09:28:01.776Z,100413.87
2023-04-18T09:31:13.454Z,100417.16
2023-04-18T09:34:26.441Z,100418.84
2023-04-18T09:37:29.496Z,100417.38
2023-04-18T09:40:33.050Z,100413.13
2023-04-18T09:43:35.632Z,100408.62
2023-04-18T09:46:38.039Z,100406.66
2023-04-18T09:49:41.067Z,100406.50
2023-04-18T09:52:45.034Z,100408.47
2023-04-18T09:55:53.298Z,100412.44
2023-04-18T09:59:09.408Z,100409.28
2023-04-18T10:02:19.697Z,100402.19
2023-04-18T10:05:25.962Z,100412.56
2023-04-18T10:08:28.624Z,100405.91
2023-04-18T10:11:32.139Z,100402.81
2023-04-18T10:14:34.632Z,100403.63
2023-04-18T10:18:02.768Z,100404.38
2023-04-18T10:21:09.003Z,100402.81
2023-04-18T10:24:53.080Z,100404.69
2023-04-18T10:27:57.325Z,100399.37
2023-04-18T10:31:04.525Z,100408.66
2023-04-18T10:34:07.393Z,100410.63
2023-04-18T10:37:11.193Z,100396.37
2023-04-18T10:40:14.056Z,100392.94
2023-04-18T10:43:16.576Z,100396.56
2023-04-18T10:46:30.879Z,100397.88
2023-04-18T10:49:38.238Z,100388.41
2023-04-18T10:52:41.576Z,100391.59
2023-04-18T10:55:50.920Z,100385.59
2023-04-18T10:58:53.745Z,100386.66
2023-04-18T11:01:57.818Z,100385.91
2023-04-18T11:05:04.032Z,100387.28
2023-04-18T11:08:23.552Z,100385.84
2023-04-18T11:11:26.289Z,100381.34
2023-04-18T11:14:46.756Z,100384.12
2023-04-18T11:17:58.328Z,100386.59
2023-04-18T11:21:03.745Z,100385.53
2023-04-18T11:24:06.387Z,100389.63
2023-04-18T11:27:11.138Z,100389.63
2023-04-18T11:30:15.181Z,100393.84
2023-04-18T11:33:17.927Z,100393.84
2023-04-18T11:36:20.700Z,100398.38
2023-04-18T11:39:24.182Z,100397.44
2023-04-18T11:42:33.309Z,100397.56
2023-04-18T11:45:36.154Z,100391.12
2023-04-18T11:48:40.591Z,100384.72
2023-04-18T11:51:46.227Z,100391.16
2023-04-18T11:54:48.684Z,100375.87
2023-04-18T11:57:55.954Z,100377.97
2023-04-18T12:00:58.992Z,100376.66
2023-04-18T12:04:08.022Z,100389.81
2023-04-18T12:07:10.667Z,100388.03
2023-04-18T12:10:22.308Z,100380.59
2023-04-18T12:13:26.809Z,100379.53
2023-04-18T12:16:30.695Z,100385.41
2023-04-18T12:19:34.319Z,100381.44
2023-04-18T12:22:49.523Z,100383.37
2023-04-18T12:25:59.985Z,100372.81
2023-04-18T12:29:03.579Z,100378.09
2023-04-18T12:32:06.356Z,100374.91
2023-04-18T12:35:09.690Z,100382.63
2023-04-18T12:38:25.837Z,100380.38
2023-04-18T12:41:32.380Z,100378.09
2023-04-18T12:44:34.832Z,100380.00
2023-04-18T12:47:42.546Z,100383.63
2023-04-18T12:50:45.184Z,100380.44
2023-04-18T12:53:47.853Z,100386.34
2023-04-18T12:56:50.571Z,100375.84
2023-04-18T12:59:53.227Z,100372.97
2023-04-18T13:02:56.501Z,100369.28
2023-04-18T13:05:59.616Z,100356.22
2023-04-18T13:09:02.026Z,100375.63
2023-04-18T13:12:05.149Z,100377.72
2023-04-18T13:15:08.556Z,100380.72
2023-04-18T13:18:11.372Z,100379.91
2023-04-18T13:21:13.740Z,100388.69
2023-04-18T13:24:16.552Z,100377.72
2023-04-18T13:27:19.247Z,100380.78
2023-04-18T13:30:21.930Z,100376.50
2023-04-18T13:33:24.314Z,100370.00
2023-04-18T13:36:27.692Z,100366.25
2023-04-18T13:39:33.156Z,100366.66
2023-04-18T13:42:38.585Z,100369.03
2023-04-18T13:45:41.296Z,100363.13
2023-04-18T13:48:44.071Z,100368.50
2023-04-18T13:51:46.580Z,100371.12
2023-04-18T13:54:49.338Z,100372.19
2023-04-18T13:57:51.898Z,100380.59
2023-04-18T14:00:54.675Z,100380.81
2023-04-18T14:03:57.792Z,100373.13
2023-04-18T14:07:02.022Z,100382.25
2023-04-18T14:10:05.129Z,100373.78
2023-04-18T14:13:07.600Z,100380.78
2023-04-18T14:16:10.199Z,100363.53
2023-04-18T14:19:12.664Z,100358.87
2023-04-18T14:22:15.656Z,100357.28
2023-04-18T14:25:18.157Z,100353.03
2023-04-18T14:28:23.607Z,100362.94
2023-04-18T14:31:28.018Z,100365.59
2023-04-18T14:34:32.677Z,100361.97
2023-04-18T14:37:36.017Z,100360.50
2023-04-18T14:40:38.593Z,100358.34
2023-04-18T14:43:41.002Z,100354.25
2023-04-18T14:46:43.699Z,100353.03
2023-04-18T14:49:46.198Z,100365.38
2023-04-18T14:52:48.877Z,100361.63
2023-04-18T14:55:51.366Z,100364.00
2023-04-18T14:58:53.976Z,100369.50
2023-04-18T15:01:56.409Z,100369.00
2023-04-18T15:04:59.518Z,100370.34
2023-04-18T15:08:01.920Z,100377.59
2023-04-18T15:11:08.122Z,100365.91
2023-04-18T15:14:10.633Z,100370.69
2023-04-18T15:17:13.252Z,100364.19
2023-04-18T15:20:16.099Z,100353.88
2023-04-18T15:23:18.877Z,100372.37
2023-04-18T15:26:21.208Z,100369.66
2023-04-18T15:29:23.964Z,100362.53
2023-04-18T15:32:26.570Z,100360.09
2023-04-18T15:35:29.499Z,100365.16
2023-04-18T15:38:32.968Z,100359.53
2023-04-18T15:41:36.930Z,100364.00
2023-04-18T15:44:39.673Z,100366.03
2023-04-18T15:47:42.418Z,100375.31
2023-04-18T15:50:50.958Z,100377.97
2023-04-18T15:53:54.164Z,100375.44
